Time;durP1;ratioP1;P1;durP2;ratioP2;P2;SDS_P1;SDS_P2;PMS_P1;PMS_P2;Temp;Humidity;BMP_temperature;BMP_pressure;BME280_temperature;BME280_humidity;BME280_pressure;Samples;Min_cycle;Max_cycle;Signal;HPM_P1;HPM_P2
2022/01/28 00:00:31;;;;;;;6.07;5.57;;;1.20;99.90;;;;;;5028567;28;20200;-91
2022/01/28 00:03:04;;;;;;;5.68;5.20;;;1.20;99.90;;;;;;5028735;28;20215;-91
2022/01/28 00:05:32;;;;;;;6.22;5.72;;;1.20;99.90;;;;;;5024691;28;20679;-91
2022/01/28 00:07:59;;;;;;;5.90;5.47;;;1.20;99.90;;;;;;5029769;28;20629;-92
2022/01/28 00:10:28;;;;;;;5.63;5.22;;;1.20;99.90;;;;;;5028903;28;20203;-91
2022/01/28 00:13:17;;;;;;;5.38;4.97;;;1.20;99.90;;;;;;5027789;28;20227;-92
2022/01/28 00:15:56;;;;;;;5.18;4.80;;;1.20;99.90;;;;;;5027698;28;20199;-91
2022/01/28 00:38:05;;;;;;;5.50;5.00;;;1.00;99.90;;;;;;5050758;28;20684;-91
2022/01/28 00:40:34;;;;;;;7.00;5.85;;;1.00;99.90;;;;;;5049321;28;20199;-91
2022/01/28 00:43:03;;;;;;;7.35;5.85;;;0.90;99.90;;;;;;5061091;28;20272;-90
2022/01/28 00:45:30;;;;;;;6.47;5.88;;;0.80;99.90;;;;;;5052461;28;20190;-91
2022/01/28 00:47:58;;;;;;;5.53;5.13;;;0.80;99.90;;;;;;5052463;28;20769;-91
2022/01/28 00:50:26;;;;;;;7.10;6.50;;;0.70;99.90;;;;;;5048225;28;20249;-91
2022/01/28 00:52:53;;;;;;;6.32;5.82;;;0.70;99.90;;;;;;5055392;28;20225;-91
2022/01/28 00:55:20;;;;;;;5.68;5.20;;;0.80;99.90;;;;;;5053477;28;20206;-92
2022/01/28 00:57:47;;;;;;;5.80;5.30;;;0.80;99.90;;;;;;5044927;28;20215;-91
2022/01/28 01:00:16;;;;;;;6.85;6.20;;;0.90;99.90;;;;;;5053871;28;20260;-90
2022/01/28 01:02:43;;;;;;;6.35;5.75;;;0.90;99.90;;;;;;5053438;28;20253;-91
2022/01/28 01:05:11;;;;;;;7.07;6.38;;;1.00;99.90;;;;;;5055121;28;20222;-92
2022/01/28 01:07:38;;;;;;;7.45;6.85;;;1.10;99.90;;;;;;5052021;28;20203;-92
2022/01/28 01:10:08;;;;;;;6.90;6.30;;;1.00;99.90;;;;;;5044879;28;20350;-91
2022/01/28 01:12:41;;;;;;;6.88;6.28;;;0.80;99.90;;;;;;5050055;28;20196;-92
2022/01/28 01:15:09;;;;;;;6.30;5.80;;;0.80;99.90;;;;;;5068819;28;20198;-93
2022/01/28 01:17:42;;;;;;;6.82;6.28;;;0.80;99.90;;;;;;5055252;28;20215;-92
2022/01/28 01:20:33;;;;;;;7.35;6.65;;;0.80;99.90;;;;;;5048610;28;20199;-92
2022/01/28 01:23:08;;;;;;;6.65;6.00;;;0.70;99.90;;;;;;5046410;28;20246;-93
2022/01/28 01:25:43;;;;;;;6.50;6.00;;;0.60;99.90;;;;;;5050388;28;20306;-91
2022/01/28 01:28:11;;;;;;;6.00;5.40;;;0.60;99.90;;;;;;5051761;28;20268;-92
2022/01/28 01:30:41;;;;;;;6.88;6.22;;;0.60;99.90;;;;;;5051978;28;20195;-92
2022/01/28 01:33:11;;;;;;;6.13;5.55;;;0.60;99.90;;;;;;5049138;28;20246;-91
2022/01/28 01:35:39;;;;;;;6.10;5.55;;;0.60;99.90;;;;;;5049908;28;20191;-90
2022/01/28 01:38:08;;;;;;;6.05;5.55;;;0.50;99.90;;;;;;5044112;28;20223;-90
2022/01/28 01:40:42;;;;;;;6.15;5.55;;;0.50;99.90;;;;;;5050285;28;20305;-92
2022/01/28 01:43:13;;;;;;;5.97;5.47;;;0.60;99.90;;;;;;5050679;28;20214;-91
2022/01/28 01:45:59;;;;;;;5.80;5.35;;;0.70;99.90;;;;;;5046757;28;20257;-91
2022/01/28 01:54:00;;;;;;;5.68;5.28;;;0.80;99.90;;;;;;5051808;28;20250;-92
2022/01/28 01:56:28;;;;;;;5.82;5.32;;;0.90;99.90;;;;;;5065440;28;20288;-90
2022/01/28 01:58:56;;;;;;;5.60;5.03;;;0.90;99.90;;;;;;5056278;28;20300;-89
2022/01/28 02:01:23;;;;;;;6.20;5.80;;;0.80;99.90;;;;;;5049469;28;20195;-91
2022/01/28 02:03:52;;;;;;;6.28;5.70;;;0.80;99.90;;;;;;5048093;28;20253;-91
2022/01/28 02:06:20;;;;;;;5.90;5.43;;;0.70;99.90;;;;;;5046307;28;20215;-90
2022/01/28 02:08:47;;;;;;;5.63;5.20;;;0.70;99.90;;;;;;5051550;28;20219;-90
2022/01/28 02:11:15;;;;;;;6.32;5.43;;;0.70;99.90;;;;;;5051131;28;20206;-91
2022/01/28 02:13:47;;;;;;;6.20;5.60;;;0.70;99.90;;;;;;5046377;28;20219;-91
2022/01/28 02:16:14;;;;;;;5.68;5.03;;;0.60;99.90;;;;;;5050869;28;20290;-90
2022/01/28 02:18:41;;;;;;;5.88;5.40;;;0.60;99.90;;;;;;5046461;28;20222;-91
2022/01/28 02:21:13;;;;;;;6.80;6.20;;;0.50;99.90;;;;;;5045070;28;20198;-90
2022/01/28 02:23:42;;;;;;;6.05;5.55;;;0.50;99.90;;;;;;5049558;28;20219;-91
2022/01/28 02:26:14;;;;;;;6.40;5.80;;;0.50;99.90;;;;;;5043210;28;20218;-90
2022/01/28 02:28:42;;;;;;;7.05;6.25;;;0.50;99.90;;;;;;5048931;28;20246;-89
2022/01/28 02:31:09;;;;;;;7.40;6.80;;;0.50;99.90;;;;;;5050120;28;20202;-89
2022/01/28 02:33:36;;;;;;;6.43;5.82;;;0.40;99.90;;;;;;5047728;28;20225;-90
2022/01/28 02:36:07;;;;;;;6.40;5.80;;;0.30;99.90;;;;;;5042646;28;20187;-89
2022/01/28 02:38:35;;;;;;;7.25;6.65;;;0.30;99.90;;;;;;5059241;28;20208;-89
2022/01/28 02:41:05;;;;;;;6.78;6.15;;;0.20;99.90;;;;;;5060694;28;20195;-90
2022/01/28 02:43:38;;;;;;;6.63;6.05;;;0.10;99.90;;;;;;5050214;28;20225;-91
2022/01/28 02:46:09;;;;;;;7.78;6.93;;;0.10;99.90;;;;;;5051629;28;20252;-91
2022/01/28 02:48:39;;;;;;;6.40;5.80;;;0.00;99.90;;;;;;5051090;28;20276;-91
2022/01/28 02:51:13;;;;;;;6.90;6.30;;;-0.10;99.90;;;;;;5049091;28;20196;-90
2022/01/28 02:53:48;;;;;;;6.72;6.13;;;-0.10;99.90;;;;;;5048148;28;20214;-91
2022/01/28 02:56:19;;;;;;;6.10;5.57;;;-0.10;99.90;;;;;;5048798;28;20294;-92
2022/01/28 02:58:47;;;;;;;6.93;6.32;;;-0.10;99.90;;;;;;5049736;28;20219;-90
2022/01/28 03:01:16;;;;;;;7.35;6.75;;;-0.20;99.90;;;;;;5046485;28;20199;-88
2022/01/28 03:03:44;;;;;;;7.03;6.38;;;-0.20;99.90;;;;;;5055584;28;20214;-89
2022/01/28 03:06:12;;;;;;;9.25;7.20;;;-0.20;99.90;;;;;;5049856;28;20219;-92
2022/01/28 03:08:42;;;;;;;8.40;7.60;;;-0.20;99.90;;;;;;5040783;28;20223;-88
2022/01/28 03:14:21;;;;;;;7.28;6.57;;;-0.20;99.90;;;;;;5026554;28;20221;-91
2022/01/28 03:19:50;;;;;;;6.53;6.00;;;-0.20;99.90;;;;;;5040115;28;20218;-93
2022/01/28 03:22:17;;;;;;;6.63;6.13;;;-0.20;99.90;;;;;;5066073;28;20187;-90
2022/01/28 03:24:48;;;;;;;6.20;5.68;;;-0.10;99.90;;;;;;5050194;28;20276;-90
2022/01/28 03:27:30;;;;;;;5.80;5.30;;;-0.10;99.90;;;;;;5051264;28;20206;-91
2022/01/28 03:29:58;;;;;;;6.13;5.60;;;0.00;99.90;;;;;;5048552;28;20682;-91
2022/01/28 03:32:25;;;;;;;5.97;5.47;;;0.00;99.90;;;;;;5043684;28;20607;-91
2022/01/28 03:34:52;;;;;;;5.45;5.05;;;0.00;99.90;;;;;;5044588;28;20298;-91
2022/01/28 03:37:20;;;;;;;6.22;5.72;;;0.00;99.90;;;;;;5044808;28;20709;-91
2022/01/28 03:39:47;;;;;;;5.72;5.20;;;0.00;99.90;;;;;;5044671;28;20218;-92
2022/01/28 03:42:16;;;;;;;5.78;5.25;;;0.10;99.90;;;;;;5046467;28;20199;-89
2022/01/28 03:44:43;;;;;;;5.65;5.25;;;0.10;99.90;;;;;;5047101;28;20222;-89
2022/01/28 03:47:10;;;;;;;6.15;5.55;;;0.20;99.90;;;;;;5043960;28;20211;-91
2022/01/28 03:49:37;;;;;;;6.03;5.57;;;0.20;99.90;;;;;;5048061;28;20615;-90
2022/01/28 03:52:05;;;;;;;5.80;5.30;;;0.20;99.90;;;;;;5054762;28;20671;-92
2022/01/28 03:54:32;;;;;;;6.10;5.60;;;0.20;99.90;;;;;;5044887;28;20214;-90
2022/01/28 03:56:59;;;;;;;5.40;4.90;;;0.30;99.90;;;;;;5040632;28;20202;-89
2022/01/28 03:59:28;;;;;;;5.13;4.70;;;0.30;99.90;;;;;;5046238;28;20218;-92
2022/01/28 04:01:55;;;;;;;4.95;4.55;;;0.30;99.90;;;;;;5049655;28;20194;-88
2022/01/28 04:12:45;;;;;;;5.93;5.53;;;0.30;99.90;;;;;;5041964;28;20190;-91
2022/01/28 04:15:34;;;;;;;6.18;5.78;;;0.20;99.90;;;;;;5049406;28;20206;-92
2022/01/28 04:18:04;;;;;;;5.90;5.43;;;0.10;99.90;;;;;;5045280;28;20653;-90
2022/01/28 04:20:32;;;;;;;5.32;4.93;;;0.10;99.90;;;;;;5047271;28;20288;-91
2022/01/28 04:22:59;;;;;;;5.82;5.32;;;0.10;99.90;;;;;;5046604;28;20230;-91
2022/01/28 04:25:26;;;;;;;5.45;5.00;;;0.10;99.90;;;;;;5052209;28;20223;-90
2022/01/28 04:27:53;;;;;;;5.55;5.15;;;0.10;99.90;;;;;;5050391;28;20715;-92
2022/01/28 04:30:23;;;;;;;5.28;4.88;;;0.00;99.90;;;;;;5047372;28;20219;-91
2022/01/28 04:32:51;;;;;;;4.80;4.40;;;0.00;99.90;;;;;;5045583;28;20264;-92
2022/01/28 04:35:18;;;;;;;6.45;5.20;;;0.00;99.90;;;;;;5042053;28;20287;-95
2022/01/28 04:37:55;;;;;;;5.97;5.47;;;0.10;99.90;;;;;;5049232;28;20199;-87
2022/01/28 04:40:27;;;;;;;6.35;5.85;;;0.10;99.90;;;;;;5046218;28;20302;-90
2022/01/28 04:43:06;;;;;;;5.38;4.88;;;0.10;99.90;;;;;;5048182;28;20195;-91
2022/01/28 04:45:42;;;;;;;5.85;5.43;;;0.10;99.90;;;;;;5045526;28;20221;-90
2022/01/28 04:48:19;;;;;;;5.63;5.22;;;0.10;99.90;;;;;;5051681;28;20345;-91
2022/01/28 04:50:59;;;;;;;5.68;5.22;;;0.10;99.90;;;;;;5049965;28;20233;-89
2022/01/28 04:56:33;;;;;;;5.25;4.88;;;0.20;99.90;;;;;;5038450;28;20198;-91
2022/01/28 04:59:21;;;;;;;4.90;4.60;;;0.30;99.90;;;;;;5044916;28;20242;-92
2022/01/28 05:07:39;;;;;;;4.25;3.95;;;0.40;99.90;;;;;;5049391;28;20198;-90
2022/01/28 05:26:55;;;;;;;4.38;4.07;;;0.40;99.90;;;;;;5039178;28;20616;-91
2022/01/28 05:29:22;;;;;;;4.65;4.35;;;0.50;99.90;;;;;;5053336;28;20225;-91
2022/01/28 05:31:49;;;;;;;4.57;4.28;;;0.60;99.90;;;;;;5048871;28;20217;-91
2022/01/28 05:34:18;;;;;;;5.50;5.10;;;0.70;99.90;;;;;;5048418;28;20218;-91
2022/01/28 05:36:45;;;;;;;5.40;5.00;;;0.80;99.90;;;;;;5048885;28;20219;-91
2022/01/28 05:39:12;;;;;;;5.22;4.80;;;0.80;99.90;;;;;;5047759;28;20230;-91
2022/01/28 05:41:39;;;;;;;6.20;5.70;;;0.70;99.90;;;;;;5046691;28;20202;-91
2022/01/28 05:44:07;;;;;;;6.97;6.20;;;0.60;99.90;;;;;;5048457;28;20188;-91
2022/01/28 05:46:35;;;;;;;6.97;6.35;;;0.40;99.90;;;;;;5050347;28;20206;-91
2022/01/28 05:49:02;;;;;;;6.38;5.88;;;0.10;99.90;;;;;;5045514;28;20249;-90
2022/01/28 05:51:31;;;;;;;7.20;6.60;;;0.00;99.90;;;;;;5050406;28;20191;-93
2022/01/28 05:53:58;;;;;;;7.72;6.35;;;0.00;99.90;;;;;;5044182;28;20684;-91
2022/01/28 05:56:25;;;;;;;6.55;6.05;;;0.00;99.90;;;;;;5051784;28;20612;-92
2022/01/28 05:58:53;;;;;;;6.78;6.18;;;-0.10;99.90;;;;;;5050160;28;20221;-90
2022/01/28 06:01:20;;;;;;;7.05;6.35;;;0.00;99.90;;;;;;5046164;28;20203;-92
2022/01/28 06:03:47;;;;;;;7.75;6.85;;;0.00;99.90;;;;;;5049268;28;20198;-91
2022/01/28 06:06:20;;;;;;;6.65;6.05;;;0.00;99.90;;;;;;5051765;28;20269;-92
2022/01/28 06:08:49;;;;;;;6.72;5.97;;;0.10;99.90;;;;;;5048415;28;20202;-91
2022/01/28 06:11:17;;;;;;;6.65;6.05;;;0.10;99.90;;;;;;5049898;28;20646;-91
2022/01/28 06:13:44;;;;;;;6.95;6.38;;;0.10;99.90;;;;;;5046834;28;20200;-90
2022/01/28 06:16:12;;;;;;;6.05;5.55;;;0.10;99.90;;;;;;5047177;28;20884;-93
2022/01/28 06:18:40;;;;;;;5.65;5.25;;;0.10;99.90;;;;;;5050214;28;20198;-90
2022/01/28 06:21:07;;;;;;;5.45;5.05;;;0.10;99.90;;;;;;5041721;28;20218;-91
2022/01/28 06:23:34;;;;;;;5.43;4.95;;;0.20;99.90;;;;;;5046580;28;20203;-92
2022/01/28 06:26:04;;;;;;;4.93;4.53;;;0.20;99.90;;;;;;5049339;28;20348;-89
2022/01/28 06:28:31;;;;;;;6.05;5.65;;;0.20;99.90;;;;;;5047371;28;20195;-89
2022/01/28 06:30:58;;;;;;;5.60;5.10;;;0.20;99.90;;;;;;5045952;28;20219;-90
2022/01/28 06:33:25;;;;;;;6.63;6.13;;;0.30;99.90;;;;;;5044984;28;20261;-90
2022/01/28 06:35:54;;;;;;;5.93;5.43;;;0.30;99.90;;;;;;5045557;28;20212;-91
2022/01/28 06:38:21;;;;;;;4.80;4.43;;;0.30;99.90;;;;;;5044327;28;20538;-90
2022/01/28 06:40:49;;;;;;;5.30;4.95;;;0.30;99.90;;;;;;5050234;28;20627;-92
2022/01/28 06:43:17;;;;;;;4.68;4.38;;;0.40;99.90;;;;;;5044208;28;20213;-89
2022/01/28 06:45:45;;;;;;;4.93;4.55;;;0.70;99.90;;;;;;5048177;28;20218;-91
2022/01/28 06:48:13;;;;;;;4.63;4.22;;;0.90;99.90;;;;;;5043219;28;20213;-90
2022/01/28 06:50:42;;;;;;;7.43;5.88;;;1.00;99.90;;;;;;5047163;28;20919;-92
2022/01/28 06:53:10;;;;;;;6.90;6.13;;;1.20;99.90;;;;;;5050663;28;20195;-91
2022/01/28 06:55:37;;;;;;;7.70;6.90;;;1.20;99.90;;;;;;5044006;28;20233;-92
2022/01/28 06:58:04;;;;;;;12.05;7.82;;;1.10;99.90;;;;;;5045656;28;20238;-91
2022/01/28 07:00:37;;;;;;;10.32;7.13;;;1.20;99.90;;;;;;5048365;28;20222;-92
2022/01/28 07:03:04;;;;;;;7.35;6.15;;;1.30;99.90;;;;;;5048437;28;20199;-92
2022/01/28 07:05:31;;;;;;;7.47;5.60;;;1.30;99.90;;;;;;5042751;28;20760;-90
2022/01/28 07:07:58;;;;;;;7.20;5.32;;;1.40;99.90;;;;;;5045717;28;20723;-90
2022/01/28 07:10:26;;;;;;;6.38;5.78;;;1.70;99.90;;;;;;5036257;28;20304;-92
2022/01/28 07:12:54;;;;;;;6.03;5.43;;;2.10;99.90;;;;;;5045205;28;20194;-92
2022/01/28 07:15:24;;;;;;;5.72;5.22;;;2.20;99.90;;;;;;5047703;28;20238;-92
2022/01/28 07:17:53;;;;;;;5.25;4.85;;;2.30;99.90;;;;;;5047061;28;20215;-91
2022/01/28 07:20:20;;;;;;;4.40;4.10;;;2.40;99.90;;;;;;5043359;28;20218;-90
2022/01/28 07:22:48;;;;;;;4.45;4.05;;;2.60;99.90;;;;;;5044446;28;20215;-90
2022/01/28 07:25:15;;;;;;;6.43;5.75;;;2.70;99.90;;;;;;5043830;28;20226;-91
2022/01/28 07:27:42;;;;;;;7.32;6.63;;;2.70;99.90;;;;;;5047342;28;20211;-90
2022/01/28 07:30:11;;;;;;;6.68;5.43;;;2.70;99.90;;;;;;5045892;28;20707;-91
2022/01/28 07:32:38;;;;;;;5.57;5.05;;;2.60;99.90;;;;;;5045197;28;20230;-91
2022/01/28 07:35:07;;;;;;;5.10;4.70;;;2.50;99.90;;;;;;5040468;28;20215;-90
2022/01/28 07:37:34;;;;;;;4.95;4.38;;;2.40;99.90;;;;;;5046275;28;20207;-92
2022/01/28 07:40:03;;;;;;;4.35;4.05;;;2.50;99.90;;;;;;5045366;28;20216;-90
2022/01/28 07:42:33;;;;;;;3.40;3.20;;;2.60;99.90;;;;;;5047291;28;20219;-90
2022/01/28 07:45:00;;;;;;;3.85;3.42;;;2.70;99.90;;;;;;5045930;28;20233;-90
2022/01/28 07:47:28;;;;;;;3.17;2.95;;;2.90;99.90;;;;;;5049165;28;20239;-92
2022/01/28 07:49:55;;;;;;;4.00;3.70;;;3.00;99.90;;;;;;5041362;28;20216;-90
2022/01/28 07:52:23;;;;;;;3.20;3.00;;;3.30;99.90;;;;;;5045715;28;20210;-90
2022/01/28 07:54:50;;;;;;;3.83;3.63;;;3.50;99.90;;;;;;5041403;28;20628;-89
2022/01/28 07:57:18;;;;;;;3.35;3.15;;;3.80;99.90;;;;;;5042121;28;20268;-91
2022/01/28 07:59:45;;;;;;;3.88;3.58;;;4.20;99.90;;;;;;5041724;28;20219;-92
2022/01/28 08:02:12;;;;;;;3.28;3.08;;;4.40;99.90;;;;;;5039901;28;20205;-91
2022/01/28 08:04:39;;;;;;;3.50;3.30;;;4.80;99.90;;;;;;5040360;28;20227;-89
2022/01/28 08:07:07;;;;;;;5.13;3.40;;;5.40;99.90;;;;;;5041861;28;20219;-92
2022/01/28 08:09:35;;;;;;;3.15;2.95;;;6.10;99.90;;;;;;5043177;28;20310;-92
2022/01/28 08:12:02;;;;;;;3.42;3.13;;;6.90;99.90;;;;;;5047416;28;20207;-89
2022/01/28 08:14:30;;;;;;;3.17;2.88;;;7.70;99.90;;;;;;5043725;28;20187;-87
2022/01/28 08:16:58;;;;;;;3.38;3.08;;;8.50;99.90;;;;;;5047433;28;20206;-90
2022/01/28 08:19:25;;;;;;;3.38;3.17;;;9.30;99.90;;;;;;5046836;28;20203;-90
2022/01/28 08:21:52;;;;;;;3.03;2.72;;;9.90;99.90;;;;;;5040835;28;20210;-87
2022/01/28 08:24:19;;;;;;;3.03;2.83;;;10.30;99.90;;;;;;5046077;28;20190;-84
2022/01/28 08:27:18;;;;;;;2.90;2.58;;;10.80;99.90;;;;;;5079191;28;20204;-88
2022/01/28 08:32:54;;;;;;;2.75;2.55;;;11.60;97.10;;;;;;5038963;28;20820;-75
2022/01/28 08:35:29;;;;;;;2.60;2.40;;;11.90;96.20;;;;;;5043099;28;20191;-77
2022/01/28 08:37:57;;;;;;;2.28;2.10;;;12.10;95.00;;;;;;5041020;28;20229;-74
2022/01/28 08:40:26;;;;;;;2.65;2.45;;;12.40;93.90;;;;;;5039247;28;20310;-76
2022/01/28 08:42:55;;;;;;;2.83;2.63;;;12.50;90.80;;;;;;5044570;28;20704;-74
2022/01/28 08:45:22;;;;;;;4.50;2.50;;;12.70;92.20;;;;;;5037188;28;20218;-76
2022/01/28 08:47:50;;;;;;;2.85;2.65;;;12.80;90.40;;;;;;5042540;28;20242;-74
2022/01/28 08:50:17;;;;;;;3.55;3.25;;;12.90;90.00;;;;;;5041308;28;20306;-75
2022/01/28 08:52:46;;;;;;;3.15;2.15;;;13.00;90.00;;;;;;5042981;28;20222;-74
2022/01/28 08:55:18;;;;;;;2.60;2.40;;;12.90;85.60;;;;;;5042120;28;20195;-75
2022/01/28 08:57:45;;;;;;;2.10;2.00;;;13.10;80.50;;;;;;5039556;28;20382;-76
2022/01/28 09:00:18;;;;;;;2.72;2.47;;;13.00;79.30;;;;;;5048633;28;20330;-76
2022/01/28 09:02:45;;;;;;;2.58;2.38;;;13.00;78.10;;;;;;5044623;28;20214;-76
2022/01/28 09:05:13;;;;;;;2.70;2.50;;;13.00;79.50;;;;;;5046749;28;20199;-77
2022/01/28 09:07:40;;;;;;;2.90;2.70;;;13.10;79.10;;;;;;5043444;28;20265;-77
2022/01/28 09:10:12;;;;;;;2.83;2.63;;;13.50;79.30;;;;;;5045393;28;20211;-76
2022/01/28 09:12:48;;;;;;;3.03;2.78;;;13.60;78.60;;;;;;5042843;28;20732;-75
2022/01/28 09:15:17;;;;;;;2.58;2.25;;;13.70;79.30;;;;;;5041823;28;20201;-75
2022/01/28 09:17:44;;;;;;;3.67;2.20;;;13.50;75.90;;;;;;5043648;28;20762;-76
2022/01/28 09:20:11;;;;;;;2.55;2.35;;;13.60;76.40;;;;;;5045643;28;20211;-77
2022/01/28 09:22:38;;;;;;;2.50;2.30;;;13.50;75.10;;;;;;5043309;28;20223;-79
2022/01/28 09:25:07;;;;;;;2.13;1.98;;;13.50;71.90;;;;;;5037977;28;20203;-75
2022/01/28 09:27:34;;;;;;;2.70;2.50;;;13.70;73.20;;;;;;5040037;28;21292;-76
2022/01/28 09:30:01;;;;;;;3.10;2.50;;;13.90;73.30;;;;;;5042004;28;20274;-78
2022/01/28 09:32:29;;;;;;;3.70;2.20;;;14.10;68.40;;;;;;5035260;28;20223;-77
2022/01/28 09:34:56;;;;;;;2.28;2.08;;;14.60;66.20;;;;;;5039338;28;20231;-79
2022/01/28 09:37:23;;;;;;;2.53;1.83;;;15.70;65.30;;;;;;5043398;28;20244;-80
2022/01/28 09:39:51;;;;;;;2.42;2.00;;;17.20;61.90;;;;;;5043271;28;20289;-78
2022/01/28 09:42:20;;;;;;;2.85;2.05;;;19.00;58.80;;;;;;5046107;28;20416;-78
2022/01/28 09:44:48;;;;;;;1.60;1.50;;;20.60;53.20;;;;;;5044195;28;20221;-77
2022/01/28 09:47:16;;;;;;;1.33;1.23;;;21.40;50.80;;;;;;5045667;28;20584;-78
2022/01/28 09:52:19;;;;;;;1.75;1.40;;;20.70;49.10;;;;;;5019077;28;20218;-71
2022/01/28 09:54:47;;;;;;;1.52;1.42;;;19.70;48.00;;;;;;5021002;28;20200;-71
2022/01/28 09:57:19;;;;;;;1.73;1.63;;;18.60;50.60;;;;;;5023552;28;20427;-72
2022/01/28 09:59:46;;;;;;;2.45;2.15;;;17.30;50.80;;;;;;5020330;28;20257;-71
2022/01/28 10:02:14;;;;;;;1.80;1.70;;;16.40;54.20;;;;;;5007070;28;20223;-72
2022/01/28 10:04:41;;;;;;;2.80;1.83;;;16.00;56.10;;;;;;5003870;28;20208;-71
2022/01/28 10:07:12;;;;;;;3.08;2.20;;;15.70;56.20;;;;;;5006949;28;20699;-70
2022/01/28 10:09:54;;;;;;;2.78;2.58;;;15.50;57.50;;;;;;5006201;28;20628;-71
2022/01/28 10:12:29;;;;;;;2.65;2.45;;;15.40;59.00;;;;;;5006246;28;20231;-69
2022/01/28 10:15:03;;;;;;;2.83;2.13;;;15.40;59.70;;;;;;5003118;28;20206;-68
2022/01/28 10:17:52;;;;;;;2.15;1.95;;;15.40;58.60;;;;;;5003710;28;20219;-70
2022/01/28 10:20:20;;;;;;;1.90;1.80;;;15.20;56.90;;;;;;5003390;28;20315;-71
2022/01/28 10:22:51;;;;;;;1.63;1.52;;;14.90;55.00;;;;;;5001803;28;20536;-70
2022/01/28 10:25:32;;;;;;;2.05;1.80;;;14.70;56.80;;;;;;5006267;28;20220;-71
2022/01/28 10:28:04;;;;;;;1.92;1.55;;;14.90;57.00;;;;;;5006168;28;20221;-70
2022/01/28 10:30:35;;;;;;;2.22;1.77;;;15.20;55.30;;;;;;5000651;28;20413;-71
2022/01/28 10:33:15;;;;;;;1.55;1.50;;;15.40;55.40;;;;;;5005307;28;20729;-71
2022/01/28 10:35:50;;;;;;;2.58;2.15;;;15.30;53.10;;;;;;5000717;28;20216;-71
2022/01/28 10:38:31;;;;;;;2.55;2.35;;;15.10;55.50;;;;;;5000986;28;20266;-70
2022/01/28 10:41:11;;;;;;;2.90;2.35;;;15.00;55.90;;;;;;5003248;28;20226;-70
2022/01/28 10:43:46;;;;;;;2.17;2.00;;;15.00;55.10;;;;;;5003826;28;20441;-70
2022/01/28 10:46:13;;;;;;;1.80;1.70;;;15.30;53.80;;;;;;4998127;28;20221;-71
2022/01/28 10:48:52;;;;;;;2.40;2.20;;;15.10;52.50;;;;;;5004153;28;20230;-71
2022/01/28 10:51:20;;;;;;;2.50;2.30;;;15.00;53.10;;;;;;5001659;28;20273;-71
2022/01/28 10:54:08;;;;;;;2.40;2.20;;;14.70;55.00;;;;;;5004901;28;20220;-71
2022/01/28 10:56:53;;;;;;;2.50;2.00;;;14.70;53.00;;;;;;5008114;28;20336;-71
2022/01/28 10:59:22;;;;;;;2.60;2.40;;;14.80;53.20;;;;;;5005669;28;20211;-70
2022/01/28 11:01:49;;;;;;;2.20;2.00;;;14.70;54.30;;;;;;5002745;28;20216;-70
2022/01/28 11:04:18;;;;;;;1.80;1.70;;;14.60;53.80;;;;;;5002360;28;20216;-70
2022/01/28 11:06:46;;;;;;;3.05;2.08;;;14.70;52.60;;;;;;5004038;28;20224;-71
2022/01/28 11:09:15;;;;;;;2.95;1.80;;;14.70;52.60;;;;;;5003847;28;20235;-71
2022/01/28 11:11:43;;;;;;;2.00;1.88;;;14.70;51.90;;;;;;5000209;28;20236;-70
2022/01/28 11:14:11;;;;;;;1.98;1.02;;;14.70;52.50;;;;;;5003174;28;20216;-72
2022/01/28 11:16:39;;;;;;;2.58;1.13;;;15.00;50.00;;;;;;5004808;28;20569;-68
2022/01/28 11:19:07;;;;;;;1.58;1.48;;;15.10;47.90;;;;;;5005549;28;20220;-67
2022/01/28 11:21:51;;;;;;;2.25;1.10;;;15.20;48.80;;;;;;5006919;28;20227;-68
2022/01/28 11:24:33;;;;;;;1.35;1.20;;;15.30;47.40;;;;;;5003473;28;20286;-67
2022/01/28 11:27:07;;;;;;;1.00;1.00;;;15.40;48.00;;;;;;5006440;28;20632;-67
2022/01/28 11:29:36;;;;;;;1.73;0.90;;;15.50;48.00;;;;;;4999668;28;20698;-66
2022/01/28 11:32:14;;;;;;;1.00;1.00;;;15.70;48.80;;;;;;5001577;28;20282;-67
2022/01/28 11:34:57;;;;;;;1.98;1.00;;;15.80;47.10;;;;;;4998724;28;20204;-67
2022/01/28 11:37:29;;;;;;;2.28;1.27;;;15.70;47.90;;;;;;5003514;28;20196;-67
2022/01/28 11:40:08;;;;;;;1.88;1.13;;;15.60;48.10;;;;;;5004784;28;20199;-67
2022/01/28 11:42:35;;;;;;;1.10;1.10;;;15.60;47.20;;;;;;5003593;28;20192;-67
2022/01/28 11:45:06;;;;;;;1.00;1.00;;;15.60;47.80;;;;;;5007635;28;20216;-66
2022/01/28 11:47:34;;;;;;;1.10;1.00;;;15.70;47.90;;;;;;5001426;28;20240;-67
2022/01/28 11:50:10;;;;;;;1.30;1.30;;;15.60;47.80;;;;;;5004676;28;20203;-67
2022/01/28 11:52:41;;;;;;;1.55;1.40;;;15.60;47.90;;;;;;4999778;28;20219;-67
2022/01/28 11:55:33;;;;;;;1.27;1.17;;;15.70;48.30;;;;;;5007198;28;20207;-66
2022/01/28 11:58:02;;;;;;;3.40;1.33;;;15.80;46.10;;;;;;5004651;28;20231;-67
2022/01/28 12:00:33;;;;;;;1.00;1.00;;;15.70;47.90;;;;;;5004284;28;20574;-66
2022/01/28 12:03:01;;;;;;;1.20;1.10;;;15.50;47.20;;;;;;5004712;28;20239;-67
2022/01/28 12:06:07;;;;;;;0.98;0.98;;;15.40;47.60;;;;;;5007176;28;20235;-67
2022/01/28 12:08:34;;;;;;;1.42;1.20;;;15.40;47.10;;;;;;5004736;28;20746;-68
2022/01/28 12:11:06;;;;;;;1.10;1.10;;;15.40;47.50;;;;;;5004333;28;20224;-68
2022/01/28 12:13:47;;;;;;;2.45;2.00;;;15.50;47.00;;;;;;5002670;28;20220;-69
2022/01/28 12:16:26;;;;;;;3.10;2.10;;;15.50;46.90;;;;;;5004090;28;20251;-68
2022/01/28 12:18:55;;;;;;;2.47;2.13;;;15.30;46.90;;;;;;4999788;28;20236;-69
2022/01/28 12:21:24;;;;;;;3.95;2.20;;;15.30;48.00;;;;;;5000396;28;20227;-68
2022/01/28 12:23:54;;;;;;;1.65;1.55;;;15.30;47.90;;;;;;5002314;28;20232;-68
2022/01/28 12:26:22;;;;;;;1.73;1.42;;;15.30;47.30;;;;;;5002008;28;20196;-68
2022/01/28 12:28:55;;;;;;;1.80;1.70;;;15.40;48.20;;;;;;5000396;28;20220;-68
2022/01/28 12:31:29;;;;;;;1.30;1.20;;;15.30;47.30;;;;;;5003250;28;20216;-68
2022/01/28 12:33:58;;;;;;;1.10;1.10;;;15.30;47.80;;;;;;5009001;28;20223;-68
2022/01/28 12:36:28;;;;;;;1.70;1.02;;;15.10;46.50;;;;;;5014068;28;20211;-69
2022/01/28 12:39:06;;;;;;;1.10;1.10;;;15.00;47.50;;;;;;5010807;28;20235;-69
2022/01/28 12:41:41;;;;;;;0.90;0.90;;;15.10;48.00;;;;;;5017805;28;20224;-68
2022/01/28 12:44:09;;;;;;;1.15;1.10;;;15.30;47.90;;;;;;5008519;28;20302;-69
2022/01/28 12:46:40;;;;;;;1.08;1.08;;;15.50;47.80;;;;;;5006346;28;20738;-68
2022/01/28 12:49:10;;;;;;;1.55;1.45;;;15.40;48.00;;;;;;5005503;28;20224;-68
2022/01/28 12:51:39;;;;;;;1.38;1.38;;;15.40;47.70;;;;;;5002194;28;20780;-68
2022/01/28 12:54:06;;;;;;;1.70;1.60;;;15.30;47.10;;;;;;5003406;28;20216;-68
2022/01/28 12:56:34;;;;;;;1.30;1.20;;;15.10;47.80;;;;;;5007375;28;20211;-68
2022/01/28 12:59:03;;;;;;;1.35;1.25;;;15.00;47.90;;;;;;4999482;28;20228;-68
2022/01/28 13:01:30;;;;;;;1.10;1.10;;;15.00;47.60;;;;;;5005765;28;20307;-68
2022/01/28 13:04:08;;;;;;;1.35;1.30;;;14.90;47.40;;;;;;5008637;28;20221;-67
2022/01/28 13:09:23;;;;;;;1.42;1.38;;;14.80;47.40;;;;;;5004441;28;20637;-67
2022/01/28 13:11:52;;;;;;;1.20;1.20;;;14.70;47.80;;;;;;5005585;28;20228;-68
2022/01/28 13:14:22;;;;;;;1.50;1.40;;;14.70;47.50;;;;;;5005981;28;20224;-68
2022/01/28 13:16:50;;;;;;;7.57;5.93;;;14.70;47.90;;;;;;5005058;28;20193;-68
2022/01/28 13:19:19;;;;;;;14.48;8.90;;;14.70;47.60;;;;;;5008119;28;20243;-68
2022/01/28 13:21:48;;;;;;;3.60;3.08;;;14.60;47.50;;;;;;5005441;28;20231;-68
2022/01/28 13:24:17;;;;;;;2.35;1.90;;;14.60;47.80;;;;;;5002489;28;20734;-67
2022/01/28 13:26:56;;;;;;;1.60;1.50;;;14.50;47.80;;;;;;5006869;28;20696;-67
2022/01/28 13:29:39;;;;;;;1.20;1.20;;;14.50;47.70;;;;;;5003591;28;20224;-68
2022/01/28 13:32:09;;;;;;;4.07;1.50;;;14.40;47.30;;;;;;5009060;28;20227;-67
2022/01/28 13:34:48;;;;;;;1.25;1.20;;;14.20;47.30;;;;;;5006573;28;20224;-67
2022/01/28 13:37:36;;;;;;;0.93;0.93;;;14.20;47.70;;;;;;5005915;28;20347;-68
2022/01/28 13:40:04;;;;;;;1.20;1.20;;;14.30;47.70;;;;;;5003241;28;20358;-68
2022/01/28 13:42:31;;;;;;;1.02;1.02;;;14.20;48.40;;;;;;5006347;28;20200;-68
2022/01/28 13:45:03;;;;;;;3.65;1.02;;;14.10;48.30;;;;;;5004176;28;20259;-68
2022/01/28 13:47:49;;;;;;;0.98;0.95;;;14.00;47.90;;;;;;5010980;28;20279;-71
2022/01/28 13:50:29;;;;;;;1.10;1.10;;;13.90;48.00;;;;;;5002659;28;20244;-68
2022/01/28 13:53:21;;;;;;;1.10;1.10;;;13.90;48.90;;;;;;5007889;28;20679;-71
2022/01/28 13:55:49;;;;;;;1.10;1.10;;;14.00;49.30;;;;;;5004167;28;20204;-68
2022/01/28 13:58:17;;;;;;;0.85;0.85;;;14.10;48.30;;;;;;5008757;28;20939;-68
2022/01/28 14:00:46;;;;;;;1.80;1.10;;;14.00;48.30;;;;;;5013123;28;20224;-67
2022/01/28 14:03:18;;;;;;;0.98;0.88;;;13.90;49.00;;;;;;5014729;28;20204;-67
2022/01/28 14:05:54;;;;;;;1.63;1.08;;;13.80;48.90;;;;;;5002905;28;20652;-67
2022/01/28 14:08:40;;;;;;;1.27;0.93;;;13.80;49.30;;;;;;5001578;28;20244;-67
2022/01/28 14:11:25;;;;;;;1.17;1.17;;;13.80;49.30;;;;;;5005116;28;20221;-67
2022/01/28 14:14:13;;;;;;;1.00;1.00;;;13.80;49.50;;;;;;5003960;28;20219;-68
2022/01/28 14:16:41;;;;;;;1.10;1.10;;;13.90;49.00;;;;;;5004353;28;20200;-67
2022/01/28 14:19:08;;;;;;;2.90;1.15;;;13.70;49.70;;;;;;5004289;28;20938;-67
2022/01/28 14:21:36;;;;;;;1.10;1.10;;;13.60;50.40;;;;;;5015216;28;20216;-68
2022/01/28 14:24:03;;;;;;;1.02;1.02;;;13.40;50.30;;;;;;5021974;28;20627;-67